Time;durP1;ratioP1;P1;durP2;ratioP2;P2;SDS_P1;SDS_P2;PMS_P1;PMS_P2;Temp;Humidity;BMP_temperature;BMP_pressure;BME280_temperature;BME280_humidity;BME280_pressure;Samples;Min_cycle;Max_cycle;Signal;HPM_P1;HPM_P2
2023/08/20 00:00:51;;;;;;;10.23;4.67;;;;;;;26.61;56.05;100882.56;4106248;28;20290;-65
2023/08/20 00:03:00;;;;;;;8.57;4.78;;;;;;;26.56;56.28;100889.03;4105918;28;20051;-66
2023/08/20 00:05:03;;;;;;;6.93;3.92;;;;;;;26.53;56.60;100889.19;4099882;28;20043;-65
2023/08/20 00:07:07;;;;;;;8.00;4.65;;;;;;;26.52;56.75;100892.78;4110079;28;20043;-66
2023/08/20 00:09:10;;;;;;;7.20;4.07;;;;;;;26.51;56.57;100889.25;4103128;28;20043;-66
2023/08/20 00:11:13;;;;;;;6.88;3.92;;;;;;;26.51;56.77;100891.06;4106642;28;20051;-66
2023/08/20 00:13:16;;;;;;;7.10;4.47;;;;;;;26.47;57.15;100893.00;4127816;28;20043;-66
2023/08/20 00:15:19;;;;;;;8.68;4.20;;;;;;;26.46;56.90;100889.47;4110469;28;20054;-66
2023/08/20 00:17:26;;;;;;;7.80;4.10;;;;;;;26.40;57.47;100889.75;4109822;28;20051;-66
2023/08/20 00:19:30;;;;;;;8.15;4.90;;;;;;;26.43;57.56;100891.38;4102607;28;20106;-65
2023/08/20 00:21:33;;;;;;;6.47;4.53;;;;;;;26.37;57.41;100889.91;4102044;28;20049;-65
2023/08/20 00:23:36;;;;;;;7.97;4.30;;;;;;;26.34;57.58;100895.34;4115047;28;20289;-65
2023/08/20 00:25:40;;;;;;;9.63;3.90;;;;;;;26.27;57.94;100893.91;4107360;28;20038;-66
2023/08/20 00:27:43;;;;;;;8.32;4.63;;;;;;;26.38;57.80;100893.41;4106222;28;20130;-65
2023/08/20 00:29:46;;;;;;;9.18;4.65;;;;;;;26.25;57.78;100899.28;4106579;28;20091;-66
2023/08/20 00:31:49;;;;;;;8.82;4.65;;;;;;;26.33;57.87;100906.94;4114421;23;20074;-64
2023/08/20 00:33:54;;;;;;;7.43;4.70;;;;;;;26.24;58.11;100902.00;4068045;29;20063;-63
2023/08/20 00:36:09;;;;;;;6.15;4.53;;;;;;;26.19;58.20;100902.22;4090274;29;20043;-63
2023/08/20 00:38:12;;;;;;;7.05;4.85;;;;;;;26.17;58.59;100904.09;4098760;29;20453;-63
2023/08/20 00:40:15;;;;;;;8.75;4.60;;;;;;;26.21;58.42;100905.69;4091424;29;20043;-65
2023/08/20 00:42:17;;;;;;;9.50;4.72;;;;;;;26.13;58.93;100902.50;4096136;29;20032;-63
2023/08/20 00:44:20;;;;;;;11.88;5.28;;;;;;;26.08;59.14;100908.03;4088890;29;20134;-63
2023/08/20 00:46:24;;;;;;;5.80;4.53;;;;;;;26.05;59.26;100904.63;4096341;29;20066;-63
2023/08/20 00:48:27;;;;;;;8.00;5.57;;;;;;;26.06;59.01;100907.22;4088091;29;20044;-64
2023/08/20 00:50:31;;;;;;;6.40;4.70;;;;;;;26.03;59.24;100904.69;4097410;29;20513;-63
2023/08/20 00:52:35;;;;;;;7.45;4.43;;;;;;;26.01;59.59;100911.91;4098480;29;20050;-63
2023/08/20 00:54:39;;;;;;;10.40;5.18;;;;;;;26.00;59.45;100917.28;4093932;29;20070;-63
2023/08/20 00:56:42;;;;;;;8.85;5.85;;;;;;;25.99;59.70;100911.03;4091872;28;20497;-63
2023/08/20 00:58:46;;;;;;;7.97;4.53;;;;;;;25.99;59.79;100915.50;4091361;29;20073;-65
2023/08/20 01:00:49;;;;;;;9.37;4.87;;;;;;;26.08;59.46;100921.34;4084357;29;20287;-66
2023/08/20 01:02:51;;;;;;;9.82;5.32;;;;;;;25.98;59.56;100914.66;4083759;29;20318;-63
2023/08/20 01:04:54;;;;;;;8.05;5.35;;;;;;;25.94;59.70;100916.56;4093642;28;20039;-63
2023/08/20 01:07:05;;;;;;;9.60;4.90;;;;;;;25.87;59.87;100917.75;4086925;29;20661;-63
2023/08/20 01:09:29;;;;;;;6.70;4.90;;;;;;;25.83;60.26;100917.97;4104061;28;20038;-65
2023/08/20 01:11:42;;;;;;;8.25;5.05;;;;;;;25.84;60.12;100907.25;4091092;29;20035;-63
2023/08/20 01:13:45;;;;;;;6.60;4.75;;;;;;;25.82;60.16;100911.78;4088452;29;20043;-63
2023/08/20 01:15:48;;;;;;;7.35;5.03;;;;;;;25.86;59.97;100909.84;4093514;29;20035;-63
2023/08/20 01:17:51;;;;;;;7.90;5.18;;;;;;;25.77;60.22;100901.34;4101123;28;20043;-63
2023/08/20 01:19:54;;;;;;;8.35;5.18;;;;;;;25.79;60.39;100910.09;4103626;28;20069;-63
2023/08/20 01:22:14;;;;;;;9.20;4.78;;;;;;;25.77;60.18;100906.66;4088626;29;20052;-63
2023/08/20 01:24:30;;;;;;;6.75;5.25;;;;;;;25.73;60.52;100905.06;4091877;29;20044;-65
2023/08/20 01:26:50;;;;;;;9.35;5.65;;;;;;;25.72;60.44;100905.97;4090164;29;20130;-65
2023/08/20 01:28:55;;;;;;;11.85;5.45;;;;;;;25.75;60.42;100902.31;4094433;29;20067;-63
2023/08/20 01:31:00;;;;;;;8.75;4.65;;;;;;;25.75;60.24;100900.50;4068465;29;20050;-63
2023/08/20 01:33:04;;;;;;;8.40;5.10;;;;;;;25.73;60.36;100899.72;4105401;28;20038;-63
2023/08/20 01:35:08;;;;;;;9.97;4.87;;;;;;;25.68;60.45;100893.72;4086477;29;20552;-63
2023/08/20 01:37:10;;;;;;;9.68;5.18;;;;;;;25.67;60.56;100893.78;4089121;29;20313;-63
2023/08/20 01:39:14;;;;;;;9.20;5.30;;;;;;;25.66;60.80;100884.06;4092577;29;20043;-63
2023/08/20 01:41:17;;;;;;;;;;;;;;;25.56;60.77;100886.25;4089843;29;20541;-63
2023/08/20 01:43:20;;;;;;;8.90;4.78;;;;;;;25.54;60.76;100888.97;4086452;29;20381;-64
2023/08/20 01:45:26;;;;;;;9.07;4.93;;;;;;;25.57;60.58;100888.84;4106576;28;20409;-63
2023/08/20 01:47:28;;;;;;;7.57;4.95;;;;;;;25.57;60.89;100882.66;4088608;29;20126;-63
2023/08/20 01:49:31;;;;;;;5.85;4.10;;;;;;;25.55;60.96;100884.50;4088970;29;20094;-63
2023/08/20 01:51:36;;;;;;;7.13;4.45;;;;;;;25.54;61.19;100877.44;4088808;28;20135;-63
2023/08/20 01:53:39;;;;;;;11.25;5.03;;;;;;;25.50;61.71;100876.72;4088718;29;20042;-65
2023/08/20 01:55:41;;;;;;;8.40;5.22;;;;;;;25.47;62.12;100876.00;4093109;29;20110;-64
2023/08/20 01:57:43;;;;;;;10.75;5.40;;;;;;;25.44;62.40;100876.97;4087065;29;20068;-65
2023/08/20 01:59:46;;;;;;;8.77;4.80;;;;;;;25.40;62.36;100881.53;4088026;29;20031;-65
2023/08/20 02:01:50;;;;;;;7.07;4.80;;;;;;;25.38;62.07;100883.41;4084809;29;20035;-65
2023/08/20 02:03:53;;;;;;;;;;;;;;;25.29;62.44;100889.09;4109452;28;20039;-65
2023/08/20 02:05:56;;;;;;;6.93;4.70;;;;;;;25.30;62.45;100880.16;4094660;29;19922;-65
2023/08/20 02:07:59;;;;;;;7.05;4.35;;;;;;;25.29;62.42;100875.78;4091431;29;20563;-64
2023/08/20 02:10:02;;;;;;;9.52;5.30;;;;;;;25.29;61.69;100878.44;4096060;29;20121;-64
2023/08/20 02:12:05;;;;;;;9.30;4.80;;;;;;;25.29;61.67;100877.56;4097152;29;20043;-65
2023/08/20 02:14:08;;;;;;;8.65;5.18;;;;;;;25.28;61.53;100876.72;4093264;29;20050;-64
2023/08/20 02:16:11;;;;;;;5.75;4.45;;;;;;;25.27;61.79;100882.94;4103758;28;20039;-64
2023/08/20 02:18:16;;;;;;;8.38;5.05;;;;;;;25.29;62.17;100886.44;4108055;28;20591;-64
2023/08/20 02:20:19;;;;;;;8.32;4.88;;;;;;;25.24;62.39;100891.91;4110549;28;20401;-64
2023/08/20 02:22:23;;;;;;;8.88;4.72;;;;;;;25.22;61.81;100885.81;4090147;28;20588;-64
2023/08/20 02:24:26;;;;;;;11.70;5.22;;;;;;;25.23;61.26;100887.53;4090057;29;20494;-64
2023/08/20 02:26:29;;;;;;;10.18;4.90;;;;;;;25.24;60.70;100891.06;4080765;29;20043;-64
2023/08/20 02:28:32;;;;;;;8.38;4.78;;;;;;;25.20;60.92;100900.09;4089762;28;20074;-64
2023/08/20 02:30:40;;;;;;;10.20;5.38;;;;;;;25.22;60.33;100898.25;4071380;29;20055;-64
2023/08/20 02:32:43;;;;;;;6.07;4.35;;;;;;;25.17;60.61;100895.75;4095205;28;20043;-64
2023/08/20 02:34:51;;;;;;;10.13;5.32;;;;;;;25.19;60.25;100895.69;4092625;29;20045;-65
2023/08/20 02:36:54;;;;;;;8.43;4.97;;;;;;;25.20;60.36;100900.09;4089896;29;20047;-64
2023/08/20 02:38:57;;;;;;;8.77;5.47;;;;;;;25.20;60.18;100897.44;4097386;28;20043;-64
2023/08/20 02:41:02;;;;;;;10.75;4.95;;;;;;;25.18;60.32;100896.63;4094984;29;20094;-64
2023/08/20 02:43:05;;;;;;;8.18;4.63;;;;;;;25.16;60.58;100894.03;4089550;29;20039;-64
2023/08/20 02:45:09;;;;;;;8.15;4.60;;;;;;;25.14;60.80;100900.34;4091384;29;20098;-65
2023/08/20 02:47:12;;;;;;;8.15;5.65;;;;;;;25.13;60.92;100901.25;4108464;28;20060;-64
2023/08/20 02:49:17;;;;;;;10.18;5.18;;;;;;;25.18;60.55;100901.97;4074664;29;20136;-65
2023/08/20 02:51:22;;;;;;;9.18;5.68;;;;;;;25.19;60.19;100901.00;4096935;29;20054;-64
2023/08/20 02:53:25;;;;;;;14.57;5.32;;;;;;;25.12;60.50;100907.53;4101791;28;20045;-64
2023/08/20 02:55:28;;;;;;;8.85;5.15;;;;;;;25.08;60.93;100899.63;4088127;29;20593;-64
2023/08/20 02:57:30;;;;;;;8.63;5.80;;;;;;;25.11;60.82;100906.63;4095813;28;20061;-64
2023/08/20 02:59:34;;;;;;;10.15;6.15;;;;;;;25.15;60.56;100902.94;4087861;29;20512;-64
2023/08/20 03:01:37;;;;;;;9.00;5.70;;;;;;;25.06;60.82;100904.16;4099077;28;20098;-64
2023/08/20 03:03:41;;;;;;;8.38;5.68;;;;;;;25.03;60.65;100898.97;4094174;29;20151;-65
2023/08/20 03:05:45;;;;;;;8.77;5.13;;;;;;;24.97;60.79;100896.56;4100530;28;20071;-64
2023/08/20 03:07:49;;;;;;;9.48;5.85;;;;;;;24.98;60.89;100892.94;4099367;28;20110;-64
2023/08/20 03:09:52;;;;;;;9.45;5.50;;;;;;;24.98;60.98;100895.59;4094086;29;20039;-64
2023/08/20 03:11:56;;;;;;;7.50;5.00;;;;;;;24.98;61.11;100894.75;4090721;29;20528;-64
2023/08/20 03:13:59;;;;;;;8.25;6.47;;;;;;;24.96;61.27;100897.47;4090385;29;20291;-64
2023/08/20 03:16:02;;;;;;;8.82;5.70;;;;;;;24.91;61.45;100889.69;4085854;29;20051;-64
2023/08/20 03:18:06;;;;;;;7.57;5.43;;;;;;;24.92;61.54;100894.03;4100989;28;20610;-64
2023/08/20 03:20:10;;;;;;;7.55;5.10;;;;;;;24.93;61.65;100897.59;4084655;29;20482;-64
2023/08/20 03:22:13;;;;;;;;;;;;;;;24.82;61.86;100891.81;4083845;29;20046;-64
2023/08/20 03:24:17;;;;;;;12.93;6.00;;;;;;;24.81;62.07;100900.72;4087813;29;20025;-65
2023/08/20 03:26:20;;;;;;;10.13;6.28;;;;;;;24.81;62.05;100887.41;4088164;29;20051;-64
2023/08/20 03:28:23;;;;;;;12.18;6.22;;;;;;;24.86;61.97;100893.44;4082774;29;20036;-65
2023/08/20 03:30:26;;;;;;;10.65;6.13;;;;;;;24.85;61.97;100905.00;4092995;29;20098;-65
2023/08/20 03:32:29;;;;;;;11.43;6.55;;;;;;;24.87;62.07;100895.19;4091838;29;20035;-65
2023/08/20 03:34:32;;;;;;;11.57;7.20;;;;;;;24.90;61.92;100898.56;4092361;29;20043;-64
2023/08/20 03:36:35;;;;;;;11.18;6.60;;;;;;;24.90;61.74;100897.72;4090880;29;20066;-65
2023/08/20 03:38:37;;;;;;;8.82;5.40;;;;;;;24.83;62.12;100901.53;4103342;28;20460;-65
2023/08/20 03:40:42;;;;;;;7.63;5.65;;;;;;;24.86;62.04;100896.09;4103826;28;20039;-65
2023/08/20 03:42:45;;;;;;;8.52;6.13;;;;;;;24.80;62.37;100894.53;4093224;29;20125;-64
2023/08/20 03:44:49;;;;;;;8.65;6.00;;;;;;;24.79;62.45;100894.59;4092795;28;20051;-65
2023/08/20 03:46:52;;;;;;;9.50;5.30;;;;;;;24.79;62.48;100894.59;4090904;29;20474;-64
2023/08/20 03:48:55;;;;;;;7.65;4.55;;;;;;;24.77;62.85;100899.97;4088698;29;20032;-65
2023/08/20 03:50:58;;;;;;;9.98;5.45;;;;;;;24.78;62.84;100903.50;4093302;29;20058;-64
2023/08/20 03:53:01;;;;;;;9.50;6.20;;;;;;;24.81;62.78;100903.38;4097766;28;20412;-64
2023/08/20 03:55:03;;;;;;;10.43;6.10;;;;;;;24.76;62.81;100908.88;4087314;29;21913;-64
2023/08/20 03:57:09;;;;;;;11.25;5.88;;;;;;;24.80;62.38;100910.50;4107468;28;20061;-65
2023/08/20 03:59:11;;;;;;;9.43;5.38;;;;;;;24.73;62.63;100917.81;4085986;29;20518;-64
2023/08/20 04:01:14;;;;;;;9.30;5.78;;;;;;;24.67;62.92;100912.75;4103041;28;20062;-65
2023/08/20 04:03:19;;;;;;;11.30;6.03;;;;;;;24.66;63.00;100911.03;4088649;29;20154;-64
2023/08/20 04:05:22;;;;;;;7.90;4.70;;;;;;;24.67;63.23;100911.88;4077279;29;20044;-65
2023/08/20 04:07:25;;;;;;;9.85;5.88;;;;;;;24.66;63.34;100911.03;4086930;29;20131;-64
2023/08/20 04:09:28;;;;;;;12.60;6.68;;;;;;;24.66;63.21;100912.81;4104320;28;20127;-65
2023/08/20 04:11:31;;;;;;;9.52;6.72;;;;;;;24.66;63.40;100910.13;4070077;29;20060;-64
2023/08/20 04:13:35;;;;;;;8.95;5.82;;;;;;;24.69;63.32;100908.25;4089016;28;20043;-65
2023/08/20 04:15:37;;;;;;;7.65;5.40;;;;;;;24.69;63.59;100910.03;4104765;28;20030;-65
2023/08/20 04:17:40;;;;;;;10.13;5.55;;;;;;;24.68;63.97;100911.81;4089311;29;20071;-64
2023/08/20 04:19:43;;;;;;;8.43;5.43;;;;;;;24.68;64.34;100910.97;4088275;29;20040;-65
2023/08/20 04:21:46;;;;;;;10.27;5.28;;;;;;;24.66;64.40;100910.13;4092191;29;20077;-65
2023/08/20 04:23:49;;;;;;;10.38;6.18;;;;;;;24.66;64.49;100918.13;4087386;29;20130;-64
2023/08/20 04:25:52;;;;;;;7.80;5.75;;;;;;;24.64;64.35;100912.84;4101257;28;20126;-65
2023/08/20 04:27:55;;;;;;;10.80;6.13;;;;;;;24.65;64.27;100909.28;4086562;29;20046;-65
2023/08/20 04:30:00;;;;;;;12.27;7.15;;;;;;;24.68;64.04;100909.16;4078215;29;20055;-64
2023/08/20 04:32:03;;;;;;;7.78;5.63;;;;;;;24.62;64.12;100912.06;4091043;29;20075;-65
2023/08/20 04:34:06;;;;;;;13.40;6.68;;;;;;;24.61;64.30;100912.13;4097535;28;20045;-65
2023/08/20 04:36:22;;;;;;;11.10;6.93;;;;;;;24.63;64.11;100910.25;4100248;28;20517;-65
2023/08/20 04:38:25;;;;;;;10.18;6.45;;;;;;;24.61;64.17;100915.63;4105227;28;20119;-64
2023/08/20 04:40:28;;;;;;;9.07;7.13;;;;;;;24.67;64.00;100918.06;4105120;28;20035;-64
2023/08/20 04:42:31;;;;;;;11.57;7.20;;;;;;;24.63;63.79;100921.75;4087292;29;20040;-65
2023/08/20 04:44:33;;;;;;;9.98;6.90;;;;;;;24.49;64.14;100924.91;4085552;29;20051;-65
2023/08/20 04:46:39;;;;;;;11.75;6.18;;;;;;;24.48;64.26;100930.28;4085919;29;20039;-64
2023/08/20 04:48:42;;;;;;;;;;;;;;;24.45;64.24;100927.72;4092909;29;20039;-64
2023/08/20 04:50:45;;;;;;;12.93;7.00;;;;;;;24.45;64.29;100941.88;4087463;29;20479;-65
2023/08/20 04:52:49;;;;;;;12.27;6.63;;;;;;;24.46;64.00;100934.75;4090207;28;20035;-64
2023/08/20 04:54:52;;;;;;;11.23;5.93;;;;;;;24.40;64.32;100939.38;4096218;28;20039;-65
2023/08/20 04:56:57;;;;;;;10.73;6.90;;;;;;;24.47;64.47;100939.16;4104861;28;20038;-64
2023/08/20 04:59:00;;;;;;;11.43;6.80;;;;;;;24.47;64.23;100945.34;4104807;28;20496;-64
2023/08/20 05:01:29;;;;;;;11.82;7.20;;;;;;;24.43;64.63;100945.50;4092011;29;20058;-65
2023/08/20 05:03:34;;;;;;;7.93;5.95;;;;;;;24.40;64.70;100944.69;4090430;29;20035;-64
2023/08/20 05:05:36;;;;;;;;;;;;;;;24.47;64.42;100955.97;4108082;28;20038;-65
2023/08/20 05:07:40;;;;;;;9.98;6.40;;;;;;;24.38;64.91;100954.50;4086272;29;19922;-65
2023/08/20 05:09:43;;;;;;;9.85;6.63;;;;;;;24.40;64.86;100957.13;4108370;28;20046;-65
2023/08/20 05:11:46;;;;;;;12.68;7.43;;;;;;;24.50;64.75;100957.66;4094828;29;20490;-65
2023/08/20 05:13:50;;;;;;;10.02;6.30;;;;;;;24.48;64.97;100956.84;4090754;29;20087;-65
2023/08/20 05:15:54;;;;;;;9.68;6.90;;;;;;;24.49;65.13;100955.94;4093062;29;20043;-65
2023/08/20 05:17:57;;;;;;;10.98;7.63;;;;;;;24.45;65.12;100963.13;4084962;29;20042;-65
2023/08/20 05:20:01;;;;;;;12.13;7.53;;;;;;;24.49;65.32;100966.56;4104144;28;20057;-65
2023/08/20 05:22:04;;;;;;;8.93;6.80;;;;;;;24.44;65.51;100966.72;4102064;28;20063;-65
2023/08/20 05:24:10;;;;;;;12.40;6.95;;;;;;;24.48;65.42;100972.78;4098312;28;20454;-65
2023/08/20 05:26:13;;;;;;;11.80;6.95;;;;;;;24.53;65.29;100965.50;4095646;29;20051;-65
2023/08/20 05:28:16;;;;;;;11.15;6.75;;;;;;;24.45;65.55;100964.94;4100124;28;20070;-65
2023/08/20 05:30:18;;;;;;;13.02;8.18;;;;;;;24.43;65.67;100972.97;4085874;29;20032;-65
2023/08/20 05:32:21;;;;;;;9.63;7.18;;;;;;;24.41;65.54;100977.44;4089497;28;20036;-65
2023/08/20 05:34:24;;;;;;;11.82;7.60;;;;;;;24.34;65.80;100979.47;4091145;28;20039;-65
2023/08/20 05:36:28;;;;;;;13.30;8.60;;;;;;;24.38;65.95;100973.09;4093398;29;20122;-65
2023/08/20 05:38:31;;;;;;;12.45;7.25;;;;;;;24.35;66.14;100973.22;4102391;28;20054;-65
2023/08/20 05:40:34;;;;;;;15.45;8.32;;;;;;;24.35;66.10;100975.00;4085803;29;20067;-65
2023/08/20 05:42:37;;;;;;;17.40;8.70;;;;;;;24.28;66.43;100979.66;4087707;29;20413;-65
2023/08/20 05:44:42;;;;;;;16.55;7.68;;;;;;;24.33;66.53;100983.03;4090939;29;20043;-65
2023/08/20 05:46:48;;;;;;;13.93;7.45;;;;;;;24.34;66.64;100984.78;4075353;29;20457;-65
2023/08/20 05:48:52;;;;;;;16.10;7.45;;;;;;;24.38;66.42;100980.22;4097508;29;20058;-65
2023/08/20 05:50:56;;;;;;;10.52;7.47;;;;;;;24.38;66.40;100970.44;4088683;29;20048;-65
2023/08/20 05:53:01;;;;;;;10.40;7.77;;;;;;;24.58;65.67;100976.84;4091169;29;20079;-65
2023/08/20 05:55:06;;;;;;;10.57;6.78;;;;;;;24.48;65.87;100989.59;4079795;29;20078;-65
2023/08/20 05:57:09;;;;;;;11.05;8.30;;;;;;;24.44;65.98;100990.63;4092395;29;20127;-65
2023/08/20 05:59:12;;;;;;;13.77;7.55;;;;;;;24.55;65.76;100982.28;4092120;29;20040;-65
2023/08/20 06:01:15;;;;;;;10.93;7.25;;;;;;;24.63;65.16;100985.56;4102473;28;20054;-65
2023/08/20 06:03:18;;;;;;;13.57;7.15;;;;;;;24.66;64.89;100989.91;4105966;28;20043;-65
2023/08/20 06:05:21;;;;;;;11.15;7.80;;;;;;;24.65;65.09;100991.69;4093021;28;20502;-65
2023/08/20 06:07:24;;;;;;;12.57;6.78;;;;;;;24.69;64.55;100992.44;4090451;29;20078;-65
2023/08/20 06:09:28;;;;;;;12.70;7.18;;;;;;;24.78;64.11;100996.56;4103331;28;20035;-64
2023/08/20 06:11:31;;;;;;;11.98;7.15;;;;;;;24.70;64.39;100992.38;4090601;28;20040;-64
2023/08/20 06:13:34;;;;;;;10.27;6.60;;;;;;;24.63;65.03;100990.00;4101072;28;20039;-65
2023/08/20 06:15:36;;;;;;;13.85;7.00;;;;;;;24.68;65.19;100991.59;4093220;28;20496;-64
2023/08/20 06:17:39;;;;;;;11.88;6.88;;;;;;;24.77;64.73;100992.19;4092189;29;20059;-64
2023/08/20 06:19:43;;;;;;;10.90;6.93;;;;;;;24.81;64.70;100999.09;4089468;29;20032;-65
2023/08/20 06:21:46;;;;;;;9.23;7.47;;;;;;;24.90;64.52;100999.66;4091561;29;20131;-65
2023/08/20 06:23:48;;;;;;;10.60;8.32;;;;;;;25.06;63.87;100999.94;4091997;29;20042;-65
2023/08/20 06:25:52;;;;;;;14.07;8.13;;;;;;;25.11;63.71;101006.88;4091613;28;20042;-64
2023/08/20 06:27:55;;;;;;;12.80;8.23;;;;;;;25.09;64.13;101002.47;4090564;29;20039;-64
2023/08/20 06:29:58;;;;;;;11.18;7.90;;;;;;;25.25;63.67;101010.75;4093830;28;20594;-64
2023/08/20 06:32:01;;;;;;;10.27;7.38;;;;;;;25.42;63.16;101011.91;4102642;23;20053;-66
2023/08/20 06:34:04;;;;;;;10.07;6.43;;;;;;;25.31;63.68;101008.81;4071293;29;20102;-65
2023/08/20 06:36:08;;;;;;;11.38;6.93;;;;;;;25.40;63.43;101008.47;4075817;29;20048;-66
2023/08/20 06:38:11;;;;;;;11.73;6.93;;;;;;;25.42;63.20;101002.16;4077419;29;20122;-65
2023/08/20 06:40:14;;;;;;;11.98;7.30;;;;;;;25.49;63.06;101001.91;4090975;29;20078;-67
2023/08/20 06:42:19;;;;;;;10.73;6.70;;;;;;;25.34;63.41;101006.91;4076626;29;20062;-66
2023/08/20 06:44:21;;;;;;;9.15;6.75;;;;;;;25.37;63.34;101008.59;4074195;29;20040;-65
2023/08/20 06:46:24;;;;;;;10.02;7.10;;;;;;;25.19;63.81;101007.44;4070500;29;20050;-65
2023/08/20 06:48:28;;;;;;;8.63;6.65;;;;;;;25.14;64.08;100996.97;4077585;29;20046;-65
2023/08/20 06:50:30;;;;;;;9.85;7.07;;;;;;;25.14;64.52;101002.31;4074522;29;20044;-66
2023/08/20 06:52:33;;;;;;;8.05;6.30;;;;;;;25.05;64.83;100998.19;4074379;29;20515;-66
2023/08/20 06:54:36;;;;;;;14.40;7.40;;;;;;;25.15;64.53;100996.06;4076825;29;20044;-66
2023/08/20 06:56:39;;;;;;;13.05;7.13;;;;;;;25.03;64.71;101005.38;4073769;29;20074;-66
2023/08/20 06:58:43;;;;;;;10.75;6.72;;;;;;;25.03;64.95;101009.84;4075523;29;20058;-65
2023/08/20 07:00:46;;;;;;;11.05;7.00;;;;;;;25.06;65.12;101005.25;4074302;29;20122;-65
2023/08/20 07:02:49;;;;;;;10.45;7.40;;;;;;;25.05;65.00;101008.84;4078723;29;20036;-65
2023/08/20 07:04:52;;;;;;;11.90;7.22;;;;;;;25.14;65.24;101002.31;4072259;29;20043;-65
2023/08/20 07:06:55;;;;;;;10.40;6.53;;;;;;;25.18;65.08;101006.59;4073013;29;20437;-65
2023/08/20 07:08:58;;;;;;;11.02;7.70;;;;;;;25.25;64.70;101004.56;4072119;29;20043;-66
2023/08/20 07:11:01;;;;;;;21.38;9.20;;;;;;;25.22;64.69;101008.22;4075907;29;20048;-65
2023/08/20 07:13:04;;;;;;;10.77;6.75;;;;;;;25.12;65.20;101009.47;4084638;29;20683;-65
2023/08/20 07:15:09;;;;;;;11.25;6.88;;;;;;;25.17;65.38;101018.16;4064207;29;20605;-66
2023/08/20 07:17:12;;;;;;;13.00;7.63;;;;;;;25.33;64.84;101013.13;4088553;29;20078;-66
2023/08/20 07:19:15;;;;;;;11.05;8.05;;;;;;;25.44;64.33;101016.25;4070141;29;20056;-65
2023/08/20 07:21:18;;;;;;;10.43;7.90;;;;;;;25.49;64.39;101017.88;4076661;29;20036;-65
2023/08/20 07:23:21;;;;;;;14.75;7.28;;;;;;;25.59;64.57;101013.91;4072141;29;20043;-65
2023/08/20 07:25:24;;;;;;;10.98;7.10;;;;;;;25.79;63.70;101018.47;4080208;29;20466;-66
2023/08/20 07:27:26;;;;;;;14.38;7.05;;;;;;;25.89;63.26;101021.59;4075842;29;20047;-66
2023/08/20 07:29:29;;;;;;;11.57;7.28;;;;;;;25.99;62.88;101028.28;4074084;29;20119;-66
2023/08/20 07:31:34;;;;;;;10.10;6.97;;;;;;;25.98;62.85;101028.34;4080264;29;20043;-66
2023/08/20 07:33:37;;;;;;;14.73;7.82;;;;;;;25.96;62.99;101031.97;4077822;29;20039;-66
2023/08/20 07:35:40;;;;;;;11.00;8.02;;;;;;;25.96;63.30;101025.75;4068355;29;20032;-66
2023/08/20 07:37:43;;;;;;;16.48;7.68;;;;;;;26.00;63.07;101032.72;4078060;29;20521;-66
2023/08/20 07:39:46;;;;;;;11.65;7.32;;;;;;;26.02;63.18;101033.53;4076532;29;20127;-66
2023/08/20 07:41:48;;;;;;;10.75;6.93;;;;;;;26.05;62.93;101024.53;4074448;29;20134;-66
2023/08/20 07:43:52;;;;;;;12.55;8.90;;;;;;;26.16;62.11;101027.63;4076695;29;20042;-66
2023/08/20 07:45:55;;;;;;;11.35;7.65;;;;;;;26.18;62.38;101024.88;4073977;29;20039;-66
2023/08/20 07:47:59;;;;;;;11.25;7.53;;;;;;;26.24;62.20;101030.84;4076269;29;20039;-66
2023/08/20 07:50:02;;;;;;;;;;;;;;;26.35;62.14;101030.38;4074926;29;20123;-66
2023/08/20 07:52:05;;;;;;;10.52;6.50;;;;;;;26.34;62.08;101025.97;4072597;29;20029;-66
2023/08/20 07:54:08;;;;;;;11.63;7.25;;;;;;;26.38;61.78;101024.91;4077780;29;20130;-66
2023/08/20 07:56:11;;;;;;;10.45;6.90;;;;;;;26.49;62.06;101027.13;4073596;29;20071;-67
2023/08/20 07:58:14;;;;;;;7.85;5.90;;;;;;;26.57;61.27;101029.44;4073553;29;20172;-66
2023/08/20 08:00:17;;;;;;;10.88;6.22;;;;;;;26.67;60.88;101029.91;4075906;29;20048;-66
2023/08/20 08:02:19;;;;;;;10.10;6.00;;;;;;;26.59;61.85;101033.78;4072272;29;20040;-66
2023/08/20 08:04:23;;;;;;;9.30;6.20;;;;;;;26.78;61.42;101041.88;4074417;29;20036;-66
2023/08/20 08:06:27;;;;;;;8.45;5.15;;;;;;;26.77;61.87;101033.94;4074768;29;20035;-66
2023/08/20 08:08:30;;;;;;;9.00;6.03;;;;;;;26.90;61.08;101042.28;4073755;29;20096;-66
2023/08/20 08:10:33;;;;;;;9.77;6.88;;;;;;;27.01;60.12;101045.28;4075420;29;20494;-66
2023/08/20 08:12:36;;;;;;;9.43;7.57;;;;;;;27.10;59.53;101038.66;4077370;29;20047;-66
2023/08/20 08:14:38;;;;;;;9.55;6.55;;;;;;;26.95;60.02;101037.56;4072302;29;20048;-66
2023/08/20 08:16:41;;;;;;;11.18;6.53;;;;;;;26.97;60.32;101033.03;4068337;29;20071;-66
2023/08/20 08:18:44;;;;;;;11.73;5.72;;;;;;;27.04;60.25;101039.81;4076316;29;20119;-66
2023/08/20 08:20:49;;;;;;;10.02;6.63;;;;;;;27.21;59.51;101035.53;4072416;29;20044;-66
2023/08/20 08:22:50;;;;;;;8.38;6.00;;;;;;;27.28;58.69;101031.63;4076281;29;20091;-66
2023/08/20 08:24:53;;;;;;;10.25;6.57;;;;;;;27.42;58.34;101034.53;4072629;29;20046;-67
2023/08/20 08:26:56;;;;;;;8.75;5.72;;;;;;;27.29;58.86;101034.22;4061348;29;20047;-66
2023/08/20 08:28:59;;;;;;;11.65;6.55;;;;;;;27.31;59.26;101039.50;4071034;29;20045;-66
2023/08/20 08:31:02;;;;;;;11.50;5.47;;;;;;;27.34;59.03;101039.38;4088212;29;20413;-67
2023/08/20 08:33:08;;;;;;;7.55;5.63;;;;;;;27.41;58.55;101043.50;4077266;29;20044;-67
2023/08/20 08:35:11;;;;;;;10.00;6.05;;;;;;;27.51;57.96;101039.44;4079223;29;20054;-67
2023/08/20 08:37:15;;;;;;;14.20;6.35;;;;;;;27.57;58.13;101045.44;4075024;29;20040;-67
2023/08/20 08:39:18;;;;;;;9.57;6.13;;;;;;;27.59;58.30;101044.41;4072173;29;20446;-67
2023/08/20 08:41:23;;;;;;;8.73;7.00;;;;;;;27.76;57.54;101043.63;4078902;29;20115;-66
2023/08/20 08:43:28;;;;;;;9.70;6.53;;;;;;;27.74;57.77;101053.50;4078151;29;20043;-66
2023/08/20 08:45:33;;;;;;;10.68;6.53;;;;;;;27.77;57.60;101056.00;4070833;29;20036;-65
2023/08/20 08:47:38;;;;;;;12.05;6.75;;;;;;;27.82;57.45;101045.13;4067829;29;20483;-66
2023/08/20 08:49:41;;;;;;;13.77;6.28;;;;;;;27.94;57.08;101052.53;4071237;29;20036;-66
2023/08/20 08:51:46;;;;;;;14.88;5.80;;;;;;;27.92;56.96;101050.88;4069730;29;20479;-61
2023/08/20 08:53:51;;;;;;;10.88;7.13;;;;;;;28.01;57.08;101059.34;4071448;29;20036;-59
2023/08/20 08:55:54;;;;;;;10.82;5.47;;;;;;;27.98;57.78;101053.28;4070616;29;20036;-61
2023/08/20 08:57:56;;;;;;;9.02;5.43;;;;;;;28.08;57.28;101054.56;4068915;29;20127;-62
2023/08/20 08:59:59;;;;;;;8.68;5.38;;;;;;;28.12;57.43;101045.44;4074453;29;20035;-63
2023/08/20 09:02:09;;;;;;;8.52;6.57;;;;;;;28.38;56.04;101056.63;4076768;29;20755;-62
2023/08/20 09:04:12;;;;;;;11.50;6.30;;;;;;;28.47;55.67;101056.13;4078510;29;20071;-61
2023/08/20 09:06:14;;;;;;;9.10;5.63;;;;;;;28.34;55.96;101055.03;4080273;29;20500;-61
2023/08/20 09:08:20;;;;;;;13.25;6.70;;;;;;;28.31;56.24;101063.22;4070861;29;20044;-59
2023/08/20 09:10:27;;;;;;;7.68;6.38;;;;;;;28.45;56.19;101057.19;4073108;29;20040;-61
2023/08/20 09:12:35;;;;;;;10.15;6.05;;;;;;;28.69;55.78;101057.75;4072610;29;20078;-62
2023/08/20 09:14:38;;;;;;;8.45;5.25;;;;;;;28.67;54.96;101062.31;4077050;29;20048;-61
2023/08/20 09:16:41;;;;;;;9.27;5.82;;;;;;;28.80;54.87;101060.72;4066214;29;20040;-61
2023/08/20 09:18:46;;;;;;;9.27;6.28;;;;;;;28.75;55.03;101060.09;4074154;29;20443;-65
2023/08/20 09:20:50;;;;;;;8.52;5.28;;;;;;;28.81;55.29;101058.91;4083961;29;20078;-64
2023/08/20 09:22:52;;;;;;;;;;;;;;;28.90;54.96;101053.94;4068652;29;20055;-64
2023/08/20 09:24:57;;;;;;;9.48;5.82;;;;;;;29.02;54.42;101056.91;4082244;29;20415;-64
2023/08/20 09:27:04;;;;;;;8.32;5.88;;;;;;;29.08;53.24;101064.59;4081401;29;20139;-63
2023/08/20 09:29:07;;;;;;;10.73;6.32;;;;;;;29.09;53.24;101058.31;4072247;29;20103;-64
2023/08/20 09:31:10;;;;;;;12.18;6.43;;;;;;;29.21;52.56;101051.41;4068736;29;20087;-64
2023/08/20 09:33:14;;;;;;;12.02;5.75;;;;;;;29.15;53.39;101054.44;4068147;29;20075;-69